x

Buoy I01 - Eastern Maine Shelf (44034) Wave Buoy

7:04 - Fri 26th May 2017 All times are EDT. -4 hours from GMT.

  • Sig Wave height 8.2ft
  • Peak Period 8s
  • Wind
    20mph, 25mph gusts
  • Sea Temp 44°f
  • Aire Temp 45°f
  • Sea Pressure 1001.7mb
  • Buoy I01 - Eastern Maine Shelf
  • Buoy I01 - Eastern Maine Shelf

More Historic Weather Station data

Upgrade to MSW Pro to gain access to the past 30 days of data for over 8000 Wavebouys and Weather Stations around the globe.

Join Pro

Comparision Forecast

View Surf forecast
   
vie 05/26 7:04 8ft 8s 20 25 mph 1001.7mb 44f 45f
6:04 10ft 6s 25 31 mph 1002mb 44f 45f
5:04 9ft 8s 29 36 mph 1001.9mb 44f 45f
4:04 9.5ft 8s 27 34 mph 1002.9mb 44f 45f
3:04 9ft 8s 29 36 mph 1004.2mb 44f 45f
2:04 7.5ft 8s 25 31 mph 1006.2mb 44f 45f
1:04 8ft 8s 27 34 mph 1006.3mb 44f 45f
12:04 5ft 5s 25 31 mph 1008mb 44f 46f
jue 05/25 11:04 6ft 6s 22 27 mph 1008.7mb 44f 47f
10:04 5ft 8s 16 20 mph 1010mb 44f 47f
9:04 5ft 5s 20 22 mph 1009.3mb 45f 48f
8:04 4.5ft 8s 16 20 mph 1010mb 45f 47f
7:04 4.5ft 8s 16 18 mph 1011.3mb 45f 47f
6:04 4.5ft 8s 16 18 mph 1012.1mb 45f 47f
5:04 5ft 8s 18 20 mph 1012.8mb 45f 46f
4:04 4ft 8s 18 20 mph 1013.2mb 45f 46f
3:04 5ft 8s 16 18 mph 1013.2mb 45f 46f
2:04 5ft 11s 16 20 mph 1013.4mb 45f 46f
1:04 4.5ft 11s 16 18 mph 1014mb 45f 46f
12:04 4ft 8s 16 18 mph 1014.5mb 46f 46f
11:04 3.5ft 8s 13 18 mph 1014.6mb 46f 46f
10:04 4.5ft 11s 13 13 mph 1014.5mb 46f 46f
9:04 4.5ft 8s 9 11 mph 1014.8mb 46f 46f
8:04 3ft 8s 9 9 mph 1014.9mb 46f 46f
7:04 3ft 8s 7 7 mph 1014.3mb 46f 46f
6:04 3.5ft 8s 4 4 mph 1014.1mb 46f 46f
5:04 3.5ft 8s 4 7 mph 1013mb 47f 46f
4:04 3.5ft 8s 4 4 mph 1013mb 47f 47f
3:04 3.5ft 8s 4 4 mph 1012.7mb 47f 47f
2:04 3.5ft 8s 2 4 mph 1012.7mb 47f 47f
1:04 3.5ft 8s  -  2 mph 1012.4mb 47f 48f
12:04 3.5ft 8s 4 7 mph 1012.1mb 47f 47f
mié 05/24 11:04 4.5ft 8s 2 2 mph 1011.6mb 47f 47f
10:04 4ft 8s 2 2 mph 1011.1mb 47f 47f
9:04 4.5ft 8s 2 2 mph 1010.5mb 47f 47f
8:04 3.5ft 8s 4 4 mph 1010.5mb 47f 48f
7:04 4ft 8s 2 2 mph 1010.7mb 47f 48f
6:04 3ft 8s 4 4 mph 1009.7mb 47f 48f
5:04 3.5ft 8s 9 11 mph 1008.9mb 47f 48f
4:04 3ft 8s 9 9 mph 1009.3mb 47f 49f
3:04 3.5ft 6s 4 4 mph 1009.2mb 48f 50f
2:04 2.5ft 6s 4 7 mph 1008.8mb 47f 49f
1:04 3ft 6s 7 7 mph 1009.3mb 46f 49f
12:04 2.5ft 6s 7 7 mph 1008.9mb 47f 49f
11:04 2.5ft 8s 4 4 mph 1008.9mb 46f 49f
10:04 2.5ft 6s 2 2 mph 1008.8mb 47f 48f
9:04 2.5ft 6s 2 2 mph 1009mb 47f 48f
8:04 2.5ft 5s 4 4 mph 1009.1mb 47f 47f
7:04 2.5ft 5s 4 7 mph 1009.1mb 47f 47f
6:04 2.5ft 5s 2 2 mph 1008.6mb 46f 47f
5:04 2.5ft 5s 4 4 mph 1008.4mb 47f 47f
4:04 2.5ft 5s 2 2 mph 1008.3mb 46f 47f
3:04 2.5ft 5s 4 7 mph 1008.5mb 46f 47f
2:04 2.5ft 6s 7 7 mph 1008.8mb 47f 47f
1:04 2.5ft 5s 4 7 mph 1008.7mb 46f 47f
12:04 3ft 6s 7 7 mph 1008.5mb 47f 47f
mar 05/23 11:04 3ft 5s 7 7 mph 1008.4mb 47f 47f
10:04 2.5ft 6s 7 9 mph 1008.8mb 46f 47f
9:04 3ft 6s 9 9 mph 1008.4mb 47f 48f
8:04 3ft 6s 9 9 mph 1008.3mb 47f 48f
7:04 3.5ft 6s 9 11 mph 1008.4mb 47f 48f
6:04 3.5ft 6s 11 13 mph 1008.3mb 47f 48f
5:04 4ft 6s 9 11 mph 1008.4mb 47f 49f
4:04 3.5ft 6s 7 7 mph 1008.6mb 48f 49f
3:04 3ft 6s 4 4 mph 1009.2mb 49f 50f
2:04 2.5ft 6s 4 7 mph 1010mb 47f 49f
1:04 2.5ft 5s 4 7 mph 1010.7mb 48f 49f
12:04 2.5ft 5s 2 2 mph 1010.7mb 46f 49f
11:04 2.5ft 5s 2 4 mph 1011.1mb 46f 48f
10:04 2ft 5s 4 4 mph 1011.3mb 46f 47f
9:04 2ft 4s 4 4 mph 1011.6mb 46f 47f
8:04 2.5ft 5s 7 9 mph 1012mb 45f 47f
7:04 2ft 4s 7 9 mph 1012.7mb 45f 47f
6:04 2ft 4s 7 9 mph 1013mb 45f 47f
5:04 2ft 4s 7 7 mph 1013.2mb 45f 47f
4:04 2.5ft 4s 13 16 mph 1013.6mb 45f 47f
3:04 1.6ft 4s 11 13 mph 1014.4mb 45f 46f
2:04 1.3ft 4s 9 11 mph 1014.9mb 46f 46f
1:04 1.3ft 4s 11 16 mph 1015.8mb 45f 46f
12:04 1ft 4s 13 16 mph 1016.5mb 45f 46f
lun 05/22 11:04 1ft 4s 9 11 mph 1017.5mb 44f 45f
10:04 1.3ft 8s 9 11 mph 1018.1mb 45f 45f
9:04 1.3ft 4s 9 11 mph 1018.4mb 46f 47f
8:04 1.3ft 4s 9 9 mph 1018.9mb 46f 47f
7:04 1.6ft 4s 9 11 mph 1018.7mb 46f 47f
6:04 1.6ft 4s 11 13 mph 1019.1mb 46f 48f
5:04 1.6ft 8s 11 13 mph 1019.4mb 46f 48f
4:04 1.3ft 3s 9 11 mph 1020.2mb 46f 48f
3:04 1ft 3s 11 13 mph 1020.5mb 46f 48f
2:04 1ft 4s 11 13 mph 1021.2mb 46f 48f